Las Vegas, NV (89164)

10:27 AM PDT on August 26, 2016 (GMT -0700)
MesoWest | | Change Station

Elev 2620 ft 36.12 °N, 115.29 °W | Updated 46 minutes ago

Partly Cloudy
Partly Cloudy
85.0 °F
Feels Like 85.0 °F
N
0.0
Wind Variable Wind from North
Gusts 0.0 mph

Today
High -- | Low -- °F
--% Chance of Precip.
Yesterday
High -- | Low -- °F
Precip. -- in
Pressure 29.86 in
Visibility 10.0 miles
Clouds Few 9000 ft
Few 13000 ft
Dew Point Not available.
Humidity Not available.
Rainfall in
Snow Depth Not available.
6:08 AM 7:16 PM
Waning Crescent, 33% visible
METAR KLAS 261656Z VRB03KT 10SM FEW090 FEW130 30/09 A2995 RMK AO2 SLP111 T03000089
Pressure 29.86 in
Visibility 10.0 miles
Clouds Few 9000 ft
Few 13000 ft
Dew Point Not available.
Humidity Not available.
Rainfall in
Snow Depth Not available.
6:08 AM 7:16 PM
Waning Crescent, 33% visible
METAR KLAS 261656Z VRB03KT 10SM FEW090 FEW130 30/09 A2995 RMK AO2 SLP111 T03000089

10-Day Weather Forecast

Almanac

Astronomy

Aug. 26, 2016 Rise Set
Actual Time
Civil Twilight
Nautical Twilight
Astronomical Twilight
Moon
Length of Visible Light
Length of Day
Tomorrow will be .
, % of the Moon is Illuminated

Today's Extremes

State Highs State Lows

Community

WunderPhotos

Upload Photos

1,935,145 photos uploaded!

WunderBlog® & News

Nearby

Air Quality

  Air Quality AQ Index Pollutant
Not available.

Snow Depth

Station Depth Elevation

Earthquake Activity

City Distance Mag. Time & Date
Minimum magnitude displayed is 2.5.

Coastal Water Temperatures

Place Temperature

Stations

Nearby Weather Stations

Station Location Temp. Windchill Dew Point Humidity Wind Precip. Elev Updated Type
                   

Watches & Warnings

There are currently no watches in effect.